sensor_id;sensor_type;location;lat;lon;timestamp;pressure;altitude;pressure_sealevel;temperature;humidity
22096;BME280;24083;55.670;37.568;2023-05-10T00:01:59;99946.44;;;13.04;46.06
22096;BME280;24083;55.670;37.568;2023-05-10T00:10:35;99940.66;;;12.77;46.40
22096;BME280;24083;55.670;37.568;2023-05-10T00:13:04;99953.75;;;12.77;46.76
22096;BME280;24083;55.670;37.568;2023-05-10T00:15:32;99942.31;;;13.19;46.28
22096;BME280;24083;55.670;37.568;2023-05-10T00:17:57;99943.91;;;13.03;46.50
22096;BME280;24083;55.670;37.568;2023-05-10T00:23:33;99937.91;;;12.80;46.69
22096;BME280;24083;55.670;37.568;2023-05-10T00:25:59;99943.84;;;12.65;46.85
22096;BME280;24083;55.670;37.568;2023-05-10T00:28:34;99933.56;;;13.00;46.34
22096;BME280;24083;55.670;37.568;2023-05-10T00:31:01;99945.88;;;12.37;47.44
22096;BME280;24083;55.670;37.568;2023-05-10T00:33:29;99943.44;;;12.32;48.07
22096;BME280;24083;55.670;37.568;2023-05-10T00:35:55;99944.31;;;12.33;47.20
22096;BME280;24083;55.670;37.568;2023-05-10T00:38:22;99950.69;;;12.46;47.32
22096;BME280;24083;55.670;37.568;2023-05-10T00:40:50;99941.50;;;12.17;47.22
22096;BME280;24083;55.670;37.568;2023-05-10T00:45:52;99949.34;;;12.58;47.15
22096;BME280;24083;55.670;37.568;2023-05-10T00:48:22;99947.03;;;12.51;47.33
22096;BME280;24083;55.670;37.568;2023-05-10T00:53:51;99949.34;;;12.58;47.17
22096;BME280;24083;55.670;37.568;2023-05-10T00:56:18;99952.44;;;12.87;46.87
22096;BME280;24083;55.670;37.568;2023-05-10T00:58:50;99946.78;;;12.57;46.94
22096;BME280;24083;55.670;37.568;2023-05-10T01:01:16;99947.38;;;12.64;47.24
22096;BME280;24083;55.670;37.568;2023-05-10T01:03:42;99947.25;;;12.46;47.29
22096;BME280;24083;55.670;37.568;2023-05-10T01:06:09;99946.00;;;12.34;47.33
22096;BME280;24083;55.670;37.568;2023-05-10T01:08:41;99944.31;;;12.33;47.17
22096;BME280;24083;55.670;37.568;2023-05-10T01:11:08;99945.56;;;12.66;47.26
22096;BME280;24083;55.670;37.568;2023-05-10T01:16:04;99937.06;;;12.60;47.76
22096;BME280;24083;55.670;37.568;2023-05-10T01:18:36;99932.03;;;12.75;47.46
22096;BME280;24083;55.670;37.568;2023-05-10T01:29:19;99937.19;;;12.16;47.70
22096;BME280;24083;55.670;37.568;2023-05-10T01:37:12;99936.66;;;12.70;47.52
22096;BME280;24083;55.670;37.568;2023-05-10T01:42:25;99939.78;;;12.37;47.89
22096;BME280;24083;55.670;37.568;2023-05-10T01:45:07;99935.81;;;12.88;47.39
22096;BME280;24083;55.670;37.568;2023-05-10T01:50:38;99924.72;;;12.83;47.24
22096;BME280;24083;55.670;37.568;2023-05-10T01:53:08;99935.63;;;12.53;47.75
22096;BME280;24083;55.670;37.568;2023-05-10T01:58:21;99939.91;;;12.34;47.41
22096;BME280;24083;55.670;37.568;2023-05-10T02:00:55;99938.66;;;12.01;48.00
22096;BME280;24083;55.670;37.568;2023-05-10T02:03:23;99934.81;;;12.30;48.38
22096;BME280;24083;55.670;37.568;2023-05-10T02:05:54;99929.22;;;12.40;48.51
22096;BME280;24083;55.670;37.568;2023-05-10T02:08:22;99928.16;;;12.44;48.23
22096;BME280;24083;55.670;37.568;2023-05-10T02:10:58;99932.88;;;12.36;48.22
22096;BME280;24083;55.670;37.568;2023-05-10T02:13:26;99934.84;;;12.91;48.20
22096;BME280;24083;55.670;37.568;2023-05-10T02:15:56;99939.28;;;12.49;48.75
22096;BME280;24083;55.670;37.568;2023-05-10T02:18:23;99935.88;;;12.47;48.27
22096;BME280;24083;55.670;37.568;2023-05-10T02:20:51;99932.22;;;12.30;48.29
22096;BME280;24083;55.670;37.568;2023-05-10T02:23:18;99936.13;;;12.20;48.93
22096;BME280;24083;55.670;37.568;2023-05-10T02:29:15;99924.94;;;12.79;48.08
22096;BME280;24083;55.670;37.568;2023-05-10T02:34:37;99929.22;;;12.40;48.20
22096;BME280;24083;55.670;37.568;2023-05-10T02:37:04;99909.19;;;12.59;47.81
22096;BME280;24083;55.670;37.568;2023-05-10T02:39:32;99919.53;;;12.63;48.23
22096;BME280;24083;55.670;37.568;2023-05-10T02:42:05;99920.84;;;12.31;47.85
22096;BME280;24083;55.670;37.568;2023-05-10T02:44:35;99923.47;;;12.52;47.90
22096;BME280;24083;55.670;37.568;2023-05-10T02:47:03;99915.88;;;12.86;47.85
22096;BME280;24083;55.670;37.568;2023-05-10T02:49:30;99914.88;;;12.69;48.33
22096;BME280;24083;55.670;37.568;2023-05-10T02:51:58;99913.38;;;12.43;48.21
22096;BME280;24083;55.670;37.568;2023-05-10T02:54:27;99923.22;;;12.17;48.66
22096;BME280;24083;55.670;37.568;2023-05-10T02:59:21;99909.22;;;13.36;47.65
22096;BME280;24083;55.670;37.568;2023-05-10T03:01:47;99917.59;;;12.87;48.19
22096;BME280;24083;55.670;37.568;2023-05-10T03:04:13;99912.47;;;12.65;48.02
22096;BME280;24083;55.670;37.568;2023-05-10T03:06:40;99908.81;;;13.07;47.91
22096;BME280;24083;55.670;37.568;2023-05-10T03:09:07;99916.53;;;12.51;48.21
22096;BME280;24083;55.670;37.568;2023-05-10T03:14:08;99908.50;;;12.75;48.08
22096;BME280;24083;55.670;37.568;2023-05-10T03:19:12;99908.25;;;13.00;47.81
22096;BME280;24083;55.670;37.568;2023-05-10T03:21:42;99899.69;;;12.57;47.87
22096;BME280;24083;55.670;37.568;2023-05-10T03:24:14;99911.22;;;13.12;47.91
22096;BME280;24083;55.670;37.568;2023-05-10T03:26:46;99906.38;;;12.83;47.77
22096;BME280;24083;55.670;37.568;2023-05-10T03:29:17;99909.88;;;13.03;48.01
22096;BME280;24083;55.670;37.568;2023-05-10T03:31:43;99905.06;;;12.54;48.11
22096;BME280;24083;55.670;37.568;2023-05-10T03:34:11;99905.44;;;13.43;48.13
22096;BME280;24083;55.670;37.568;2023-05-10T03:36:42;99908.81;;;13.07;48.01
22096;BME280;24083;55.670;37.568;2023-05-10T03:39:09;99910.25;;;12.95;48.18
22096;BME280;24083;55.670;37.568;2023-05-10T03:41:42;99913.63;;;12.97;48.06
22096;BME280;24083;55.670;37.568;2023-05-10T03:44:09;99909.97;;;13.20;48.27
22096;BME280;24083;55.670;37.568;2023-05-10T03:46:39;99908.81;;;13.07;48.75
22096;BME280;24083;55.670;37.568;2023-05-10T03:49:05;99905.06;;;13.32;47.99
22096;BME280;24083;55.670;37.568;2023-05-10T03:51:33;99902.88;;;13.03;47.83
22096;BME280;24083;55.670;37.568;2023-05-10T03:56:30;99918.00;;;12.97;48.20
22096;BME280;24083;55.670;37.568;2023-05-10T03:58:57;99908.97;;;13.04;48.71
22096;BME280;24083;55.670;37.568;2023-05-10T04:01:23;99902.28;;;12.77;48.41
22096;BME280;24083;55.670;37.568;2023-05-10T04:03:51;99909.59;;;13.09;48.76
22096;BME280;24083;55.670;37.568;2023-05-10T04:06:19;99905.78;;;13.16;48.31
22096;BME280;24083;55.670;37.568;2023-05-10T04:11:16;99903.91;;;12.80;47.56
22096;BME280;24083;55.670;37.568;2023-05-10T04:13:43;99900.31;;;13.21;48.00
22096;BME280;24083;55.670;37.568;2023-05-10T04:16:09;99898.78;;;12.98;47.33
22096;BME280;24083;55.670;37.568;2023-05-10T04:18:35;99901.16;;;13.60;47.78
22096;BME280;24083;55.670;37.568;2023-05-10T04:21:03;99901.81;;;14.18;48.01
22096;BME280;24083;55.670;37.568;2023-05-10T04:23:29;99907.19;;;13.79;47.08
22096;BME280;24083;55.670;37.568;2023-05-10T04:26:01;99890.25;;;13.69;47.28
22096;BME280;24083;55.670;37.568;2023-05-10T04:28:31;99896.09;;;13.74;47.05
22096;BME280;24083;55.670;37.568;2023-05-10T04:33:28;99898.25;;;13.84;47.29
22096;BME280;24083;55.670;37.568;2023-05-10T04:35:55;99895.91;;;13.60;47.60
22096;BME280;24083;55.670;37.568;2023-05-10T04:41:09;99898.81;;;14.25;47.00
22096;BME280;24083;55.670;37.568;2023-05-10T04:43:36;99892.84;;;14.39;46.90
22096;BME280;24083;55.670;37.568;2023-05-10T04:46:03;99886.34;;;13.95;46.92
22096;BME280;24083;55.670;37.568;2023-05-10T04:57:07;99879.91;;;14.01;46.44
22096;BME280;24083;55.670;37.568;2023-05-10T05:03:47;99881.25;;;15.11;46.95
22096;BME280;24083;55.670;37.568;2023-05-10T05:06:13;99882.50;;;14.88;47.29
22096;BME280;24083;55.670;37.568;2023-05-10T05:08:49;99881.06;;;14.82;46.82
22096;BME280;24083;55.670;37.568;2023-05-10T05:14:13;99878.19;;;15.35;46.88
22096;BME280;24083;55.670;37.568;2023-05-10T05:16:44;99875.31;;;15.07;45.81
22096;BME280;24083;55.670;37.568;2023-05-10T05:19:10;99871.88;;;15.53;46.66
22096;BME280;24083;55.670;37.568;2023-05-10T05:21:40;99869.50;;;14.68;46.53
22096;BME280;24083;55.670;37.568;2023-05-10T05:24:13;99862.94;;;15.25;46.86
22096;BME280;24083;55.670;37.568;2023-05-10T05:26:43;99861.56;;;15.34;45.91
22096;BME280;24083;55.670;37.568;2023-05-10T05:31:47;99861.81;;;14.48;46.59
22096;BME280;24083;55.670;37.568;2023-05-10T05:34:25;99859.16;;;15.62;46.17
22096;BME280;24083;55.670;37.568;2023-05-10T05:36:52;99854.06;;;15.58;46.20
22096;BME280;24083;55.670;37.568;2023-05-10T05:40:14;99867.50;;;15.38;47.09
22096;BME280;24083;55.670;37.568;2023-05-10T05:45:41;99859.72;;;15.20;46.95
22096;BME280;24083;55.670;37.568;2023-05-10T05:48:08;99855.91;;;15.89;46.84
22096;BME280;24083;55.670;37.568;2023-05-10T05:50:34;99847.03;;;16.20;46.95
22096;BME280;24083;55.670;37.568;2023-05-10T06:03:35;99840.59;;;17.79;45.61
22096;BME280;24083;55.670;37.568;2023-05-10T06:06:02;99840.84;;;17.21;45.74
22096;BME280;24083;55.670;37.568;2023-05-10T06:08:30;99845.56;;;17.43;45.80
22096;BME280;24083;55.670;37.568;2023-05-10T06:11:01;99836.94;;;17.54;45.37
22096;BME280;24083;55.670;37.568;2023-05-10T06:13:55;99833.03;;;17.87;45.15
22096;BME280;24083;55.670;37.568;2023-05-10T06:16:29;99828.44;;;18.30;45.07
22096;BME280;24083;55.670;37.568;2023-05-10T06:19:05;99835.06;;;18.22;45.01
22096;BME280;24083;55.670;37.568;2023-05-10T06:21:41;99833.34;;;17.15;45.68
22096;BME280;24083;55.670;37.568;2023-05-10T06:27:06;99837.03;;;17.40;44.45
22096;BME280;24083;55.670;37.568;2023-05-10T06:29:42;99848.06;;;16.46;44.07
22096;BME280;24083;55.670;37.568;2023-05-10T06:32:10;99840.09;;;16.34;44.75
22096;BME280;24083;55.670;37.568;2023-05-10T06:37:42;99830.09;;;16.82;45.22
22096;BME280;24083;55.670;37.568;2023-05-10T06:40:09;99831.81;;;17.25;44.95
22096;BME280;24083;55.670;37.568;2023-05-10T06:42:35;99835.34;;;17.11;44.33
22096;BME280;24083;55.670;37.568;2023-05-10T06:48:46;99821.53;;;16.93;43.83
22096;BME280;24083;55.670;37.568;2023-05-10T06:51:14;99824.63;;;17.00;43.74
22096;BME280;24083;55.670;37.568;2023-05-10T06:53:57;99820.63;;;18.15;42.99
22096;BME280;24083;55.670;37.568;2023-05-10T06:56:26;99822.56;;;17.32;43.43
22096;BME280;24083;55.670;37.568;2023-05-10T06:59:16;99829.59;;;17.59;42.92
22096;BME280;24083;55.670;37.568;2023-05-10T07:05:15;99815.00;;;17.41;42.22
22096;BME280;24083;55.670;37.568;2023-05-10T07:07:41;99811.97;;;18.00;42.14
22096;BME280;24083;55.670;37.568;2023-05-10T07:10:14;99809.41;;;17.99;42.22
22096;BME280;24083;55.670;37.568;2023-05-10T07:13:17;99804.78;;;18.15;42.54
22096;BME280;24083;55.670;37.568;2023-05-10T07:18:59;99808.97;;;17.79;41.41
22096;BME280;24083;55.670;37.568;2023-05-10T07:21:43;99800.72;;;17.58;41.40
22096;BME280;24083;55.670;37.568;2023-05-10T07:24:17;99796.13;;;18.13;41.22
22096;BME280;24083;55.670;37.568;2023-05-10T07:26:50;99793.09;;;17.53;41.01
22096;BME280;24083;55.670;37.568;2023-05-10T07:29:25;99783.19;;;17.44;41.45
22096;BME280;24083;55.670;37.568;2023-05-10T07:42:35;99788.31;;;18.24;41.27
22096;BME280;24083;55.670;37.568;2023-05-10T07:45:11;99791.59;;;18.78;41.40
22096;BME280;24083;55.670;37.568;2023-05-10T07:59:30;99779.03;;;18.32;41.25
22096;BME280;24083;55.670;37.568;2023-05-10T08:02:26;99779.47;;;18.13;41.63
22096;BME280;24083;55.670;37.568;2023-05-10T08:08:21;99768.16;;;18.74;41.12
22096;BME280;24083;55.670;37.568;2023-05-10T08:16:35;99763.59;;;18.51;41.09
22096;BME280;24083;55.670;37.568;2023-05-10T08:19:03;99754.41;;;18.31;41.18
22096;BME280;24083;55.670;37.568;2023-05-10T08:22:03;99752.28;;;18.87;40.95
22096;BME280;24083;55.670;37.568;2023-05-10T08:24:33;99752.72;;;18.80;40.39
22096;BME280;24083;55.670;37.568;2023-05-10T08:27:04;99746.56;;;19.53;39.80
22096;BME280;24083;55.670;37.568;2023-05-10T08:35:16;99746.13;;;17.99;40.26
22096;BME280;24083;55.670;37.568;2023-05-10T08:37:43;99751.38;;;17.73;40.73
22096;BME280;24083;55.670;37.568;2023-05-10T08:40:11;99751.78;;;17.67;40.68
22096;BME280;24083;55.670;37.568;2023-05-10T08:45:13;99734.41;;;19.15;39.90
22096;BME280;24083;55.670;37.568;2023-05-10T08:55:32;99731.75;;;18.03;41.23
22096;BME280;24083;55.670;37.568;2023-05-10T09:04:46;99730.06;;;18.28;40.35
22096;BME280;24083;55.670;37.568;2023-05-10T09:07:47;99725.38;;;18.44;40.24
22096;BME280;24083;55.670;37.568;2023-05-10T09:10:22;99719.44;;;18.53;39.71
22096;BME280;24083;55.670;37.568;2023-05-10T09:15:24;99720.84;;;18.95;38.82
22096;BME280;24083;55.670;37.568;2023-05-10T09:17:53;99710.91;;;18.00;38.88
22096;BME280;24083;55.670;37.568;2023-05-10T09:23:07;99703.84;;;19.93;38.47
22096;BME280;24083;55.670;37.568;2023-05-10T09:25:36;99701.53;;;20.34;38.07
22096;BME280;24083;55.670;37.568;2023-05-10T09:28:08;99693.03;;;19.96;38.03
22096;BME280;24083;55.670;37.568;2023-05-10T09:30:35;99697.63;;;21.69;37.53
22096;BME280;24083;55.670;37.568;2023-05-10T09:33:02;99689.28;;;20.77;38.43
22096;BME280;24083;55.670;37.568;2023-05-10T09:35:32;99688.19;;;19.90;38.91
22096;BME280;24083;55.670;37.568;2023-05-10T09:41:19;99686.00;;;19.72;39.76
22096;BME280;24083;55.670;37.568;2023-05-10T09:43:49;99696.56;;;20.41;39.31
22096;BME280;24083;55.670;37.568;2023-05-10T09:46:33;99689.41;;;20.09;39.44
22096;BME280;24083;55.670;37.568;2023-05-10T09:49:01;99691.47;;;18.75;39.96
22096;BME280;24083;55.670;37.568;2023-05-10T09:51:28;99681.97;;;20.02;39.83
22096;BME280;24083;55.670;37.568;2023-05-10T09:54:12;99675.19;;;19.53;39.09
22096;BME280;24083;55.670;37.568;2023-05-10T09:57:02;99666.19;;;21.64;38.71
22096;BME280;24083;55.670;37.568;2023-05-10T10:02:18;99666.78;;;21.04;39.54
22096;BME280;24083;55.670;37.568;2023-05-10T10:04:43;99665.97;;;21.56;38.54
22096;BME280;24083;55.670;37.568;2023-05-10T10:10:03;99662.78;;;20.77;38.95
22096;BME280;24083;55.670;37.568;2023-05-10T10:12:30;99651.22;;;20.78;38.61
22096;BME280;24083;55.670;37.568;2023-05-10T10:14:56;99649.28;;;20.80;38.84
22096;BME280;24083;55.670;37.568;2023-05-10T10:17:23;99653.84;;;21.32;38.97
22096;BME280;24083;55.670;37.568;2023-05-10T10:19:51;99647.00;;;21.82;37.98
22096;BME280;24083;55.670;37.568;2023-05-10T10:22:18;99633.44;;;21.85;37.87
22096;BME280;24083;55.670;37.568;2023-05-10T10:24:45;99643.28;;;21.63;38.62
22096;BME280;24083;55.670;37.568;2023-05-10T10:38:20;99639.69;;;20.24;38.94
22096;BME280;24083;55.670;37.568;2023-05-10T10:41:02;99631.88;;;20.99;39.01
22096;BME280;24083;55.670;37.568;2023-05-10T10:43:29;99630.66;;;21.03;38.71
22096;BME280;24083;55.670;37.568;2023-05-10T10:46:22;99625.75;;;22.32;37.95
22096;BME280;24083;55.670;37.568;2023-05-10T10:48:51;99629.00;;;21.33;38.66
22096;BME280;24083;55.670;37.568;2023-05-10T10:51:37;99629.41;;;21.07;38.86
22096;BME280;24083;55.670;37.568;2023-05-10T10:54:18;99626.19;;;21.87;38.22
22096;BME280;24083;55.670;37.568;2023-05-10T11:00:30;99627.63;;;21.91;38.08
22096;BME280;24083;55.670;37.568;2023-05-10T11:03:03;99616.47;;;21.97;37.95
22096;BME280;24083;55.670;37.568;2023-05-10T11:09:09;99613.59;;;23.18;37.64
22096;BME280;24083;55.670;37.568;2023-05-10T11:11:13;99607.41;;;23.75;37.50
22096;BME280;24083;55.670;37.568;2023-05-10T11:20:40;99596.63;;;23.95;36.82
22096;BME280;24083;55.670;37.568;2023-05-10T11:23:12;99594.69;;;23.31;37.86
22096;BME280;24083;55.670;37.568;2023-05-10T11:32:56;99589.19;;;22.65;37.52
22096;BME280;24083;55.670;37.568;2023-05-10T11:35:27;99582.81;;;23.06;37.60
22096;BME280;24083;55.670;37.568;2023-05-10T11:38:01;99577.81;;;24.06;37.06
22096;BME280;24083;55.670;37.568;2023-05-10T11:47:02;99584.00;;;21.22;39.11
22096;BME280;24083;55.670;37.568;2023-05-10T11:49:30;99583.13;;;21.11;39.08
22096;BME280;24083;55.670;37.568;2023-05-10T11:54:37;99582.84;;;19.84;38.55
22096;BME280;24083;55.670;37.568;2023-05-10T11:57:20;99579.16;;;20.63;39.24
22096;BME280;24083;55.670;37.568;2023-05-10T11:59:47;99572.84;;;21.90;38.63
22096;BME280;24083;55.670;37.568;2023-05-10T12:02:26;99574.09;;;22.46;38.08
22096;BME280;24083;55.670;37.568;2023-05-10T12:04:56;99571.50;;;22.15;38.56
22096;BME280;24083;55.670;37.568;2023-05-10T12:07:35;99566.72;;;21.17;38.25
22096;BME280;24083;55.670;37.568;2023-05-10T12:13:20;99561.91;;;21.73;39.01
22096;BME280;24083;55.670;37.568;2023-05-10T12:15:47;99552.78;;;21.25;39.24
22096;BME280;24083;55.670;37.568;2023-05-10T12:21:39;99557.38;;;20.59;39.72
22096;BME280;24083;55.670;37.568;2023-05-10T12:24:07;99547.53;;;21.04;38.93
22096;BME280;24083;55.670;37.568;2023-05-10T12:26:34;99556.19;;;21.37;38.68
22096;BME280;24083;55.670;37.568;2023-05-10T12:29:17;99551.16;;;20.82;39.51
22096;BME280;24083;55.670;37.568;2023-05-10T12:31:59;99545.91;;;20.92;39.71
22096;BME280;24083;55.670;37.568;2023-05-10T12:34:25;99554.44;;;21.16;39.82
22096;BME280;24083;55.670;37.568;2023-05-10T12:36:54;99553.34;;;20.44;40.59
22096;BME280;24083;55.670;37.568;2023-05-10T12:39:23;99562.16;;;20.00;40.48
22096;BME280;24083;55.670;37.568;2023-05-10T12:44:23;99541.78;;;23.18;38.10
22096;BME280;24083;55.670;37.568;2023-05-10T12:46:53;99539.16;;;24.02;37.84
22096;BME280;24083;55.670;37.568;2023-05-10T12:49:20;99540.91;;;24.48;37.49
22096;BME280;24083;55.670;37.568;2023-05-10T12:51:51;99538.38;;;23.64;38.30
22096;BME280;24083;55.670;37.568;2023-05-10T12:54:19;99536.06;;;24.07;37.51
22096;BME280;24083;55.670;37.568;2023-05-10T12:56:47;99536.84;;;21.15;38.41
22096;BME280;24083;55.670;37.568;2023-05-10T12:59:16;99540.50;;;22.16;38.92
22096;BME280;24083;55.670;37.568;2023-05-10T13:01:49;99537.72;;;22.37;38.66
22096;BME280;24083;55.670;37.568;2023-05-10T13:05:05;99536.47;;;21.61;38.93
22096;BME280;24083;55.670;37.568;2023-05-10T13:07:32;99535.13;;;23.04;38.38
22096;BME280;24083;55.670;37.568;2023-05-10T13:10:02;99536.50;;;21.09;39.52
22096;BME280;24083;55.670;37.568;2023-05-10T13:12:29;99528.75;;;21.99;39.43
22096;BME280;24083;55.670;37.568;2023-05-10T13:14:57;99535.88;;;21.57;39.37
22096;BME280;24083;55.670;37.568;2023-05-10T13:17:25;99530.28;;;20.88;39.94
22096;BME280;24083;55.670;37.568;2023-05-10T13:22:20;99539.56;;;19.96;40.57
22096;BME280;24083;55.670;37.568;2023-05-10T13:24:47;99532.09;;;20.01;40.48
22096;BME280;24083;55.670;37.568;2023-05-10T13:27:13;99547.50;;;19.85;40.78
22096;BME280;24083;55.670;37.568;2023-05-10T13:29:44;99544.84;;;19.96;40.67
22096;BME280;24083;55.670;37.568;2023-05-10T13:32:10;99530.78;;;20.82;40.41
22096;BME280;24083;55.670;37.568;2023-05-10T13:40:46;99525.78;;;21.41;39.85
22096;BME280;24083;55.670;37.568;2023-05-10T13:52:47;99522.25;;;20.57;41.26
22096;BME280;24083;55.670;37.568;2023-05-10T13:55:15;99526.88;;;20.44;40.82
22096;BME280;24083;55.670;37.568;2023-05-10T14:00:42;99527.44;;;20.80;40.86
22096;BME280;24083;55.670;37.568;2023-05-10T14:03:13;99522.63;;;22.18;39.87
22096;BME280;24083;55.670;37.568;2023-05-10T14:05:39;99522.28;;;21.82;40.01
22096;BME280;24083;55.670;37.568;2023-05-10T14:08:11;99524.81;;;21.93;39.87
22096;BME280;24083;55.670;37.568;2023-05-10T14:10:38;99517.84;;;22.31;39.90
22096;BME280;24083;55.670;37.568;2023-05-10T14:13:05;99514.63;;;21.47;40.05
22096;BME280;24083;55.670;37.568;2023-05-10T14:15:32;99520.09;;;21.56;40.01
22096;BME280;24083;55.670;37.568;2023-05-10T14:20:46;99519.47;;;21.73;39.78
22096;BME280;24083;55.670;37.568;2023-05-10T14:23:15;99503.75;;;21.50;40.04
22096;BME280;24083;55.670;37.568;2023-05-10T14:25:41;99507.75;;;21.35;40.20
22096;BME280;24083;55.670;37.568;2023-05-10T14:28:10;99504.19;;;21.56;40.24
22096;BME280;24083;55.670;37.568;2023-05-10T14:30:38;99509.38;;;21.16;40.58
22096;BME280;24083;55.670;37.568;2023-05-10T14:33:05;99506.78;;;21.36;40.51
22096;BME280;24083;55.670;37.568;2023-05-10T14:35:35;99507.75;;;21.86;40.48
22096;BME280;24083;55.670;37.568;2023-05-10T14:40:52;99509.16;;;20.77;40.66
22096;BME280;24083;55.670;37.568;2023-05-10T14:43:29;99510.50;;;19.62;41.76
22096;BME280;24083;55.670;37.568;2023-05-10T14:45:55;99516.94;;;18.78;42.52
22096;BME280;24083;55.670;37.568;2023-05-10T14:50:50;99505.44;;;20.47;41.11
22096;BME280;24083;55.670;37.568;2023-05-10T14:53:17;99498.66;;;20.75;40.86
22096;BME280;24083;55.670;37.568;2023-05-10T14:55:45;99508.16;;;20.03;41.31
22096;BME280;24083;55.670;37.568;2023-05-10T14:58:12;99499.41;;;19.80;41.01
22096;BME280;24083;55.670;37.568;2023-05-10T15:00:38;99504.59;;;19.81;41.69
22096;BME280;24083;55.670;37.568;2023-05-10T15:03:06;99502.78;;;19.70;41.71
22096;BME280;24083;55.670;37.568;2023-05-10T15:05:32;99503.91;;;19.00;41.96
22096;BME280;24083;55.670;37.568;2023-05-10T15:08:00;99506.47;;;19.01;41.99
22096;BME280;24083;55.670;37.568;2023-05-10T15:10:25;99501.91;;;19.03;42.05
22096;BME280;24083;55.670;37.568;2023-05-10T15:15:51;99498.25;;;20.16;41.43
22096;BME280;24083;55.670;37.568;2023-05-10T15:18:17;99490.19;;;21.03;40.69
22096;BME280;24083;55.670;37.568;2023-05-10T15:20:47;99493.50;;;21.26;40.50
22096;BME280;24083;55.670;37.568;2023-05-10T15:26:55;99493.69;;;20.40;41.23
22096;BME280;24083;55.670;37.568;2023-05-10T15:31:57;99500.91;;;19.27;42.79
22096;BME280;24083;55.670;37.568;2023-05-10T15:34:25;99496.59;;;19.37;42.46
22096;BME280;24083;55.670;37.568;2023-05-10T15:36:53;99493.94;;;19.15;42.60
22096;BME280;24083;55.670;37.568;2023-05-10T15:39:27;99494.19;;;19.23;42.62
22096;BME280;24083;55.670;37.568;2023-05-10T15:41:57;99491.16;;;19.62;42.36
22096;BME280;24083;55.670;37.568;2023-05-10T15:44:24;99491.69;;;19.99;41.80
22096;BME280;24083;55.670;37.568;2023-05-10T15:46:51;99493.44;;;20.43;42.14
22096;BME280;24083;55.670;37.568;2023-05-10T15:49:24;99490.34;;;19.27;42.72
22096;BME280;24083;55.670;37.568;2023-05-10T15:51:50;99494.09;;;19.13;43.00
22096;BME280;24083;55.670;37.568;2023-05-10T15:54:16;99484.50;;;19.79;42.36
22096;BME280;24083;55.670;37.568;2023-05-10T15:56:43;99496.06;;;18.75;42.88
22096;BME280;24083;55.670;37.568;2023-05-10T15:59:17;99487.84;;;19.25;42.65
22096;BME280;24083;55.670;37.568;2023-05-10T16:01:44;99494.69;;;19.95;42.39
22096;BME280;24083;55.670;37.568;2023-05-10T16:04:18;99485.94;;;19.83;42.58
22096;BME280;24083;55.670;37.568;2023-05-10T16:06:43;99491.47;;;19.80;43.20
22096;BME280;24083;55.670;37.568;2023-05-10T16:09:12;99490.34;;;19.50;43.62
22096;BME280;24083;55.670;37.568;2023-05-10T16:14:34;99493.72;;;19.06;43.34
22096;BME280;24083;55.670;37.568;2023-05-10T16:23:14;99485.97;;;18.69;43.94
22096;BME280;24083;55.670;37.568;2023-05-10T16:25:40;99485.97;;;18.69;43.64
22096;BME280;24083;55.670;37.568;2023-05-10T16:28:54;99486.25;;;19.46;43.91
22096;BME280;24083;55.670;37.568;2023-05-10T16:31:21;99488.38;;;18.72;44.45
22096;BME280;24083;55.670;37.568;2023-05-10T16:33:48;99488.28;;;19.42;43.81
22096;BME280;24083;55.670;37.568;2023-05-10T16:36:17;99489.16;;;19.42;43.63
22096;BME280;24083;55.670;37.568;2023-05-10T16:38:44;99493.81;;;19.62;43.22
22096;BME280;24083;55.670;37.568;2023-05-10T16:46:31;99486.03;;;19.37;43.54
22096;BME280;24083;55.670;37.568;2023-05-10T16:51:56;99486.59;;;19.64;43.21
22096;BME280;24083;55.670;37.568;2023-05-10T16:54:23;99489.22;;;19.75;43.28
22096;BME280;24083;55.670;37.568;2023-05-10T16:56:50;99490.84;;;19.43;43.32
22096;BME280;24083;55.670;37.568;2023-05-10T16:59:17;99488.66;;;19.49;43.58
22096;BME280;24083;55.670;37.568;2023-05-10T17:01:54;99491.16;;;19.50;43.54
22096;BME280;24083;55.670;37.568;2023-05-10T17:04:22;99488.03;;;19.68;43.71
22096;BME280;24083;55.670;37.568;2023-05-10T17:06:52;99501.09;;;19.69;43.68
22096;BME280;24083;55.670;37.568;2023-05-10T17:09:21;99496.59;;;19.60;44.04
22096;BME280;24083;55.670;37.568;2023-05-10T17:11:49;99498.72;;;19.66;43.86
22096;BME280;24083;55.670;37.568;2023-05-10T17:14:14;99492.03;;;19.51;44.04
22096;BME280;24083;55.670;37.568;2023-05-10T17:19:32;99495.59;;;19.61;43.93
22096;BME280;24083;55.670;37.568;2023-05-10T17:25:16;99505.00;;;19.42;44.38
22096;BME280;24083;55.670;37.568;2023-05-10T17:27:42;99500.22;;;19.36;44.34
22096;BME280;24083;55.670;37.568;2023-05-10T17:30:09;99504.91;;;19.10;44.54
22096;BME280;24083;55.670;37.568;2023-05-10T17:32:40;99497.94;;;19.32;44.14
22096;BME280;24083;55.670;37.568;2023-05-10T17:35:06;99510.84;;;18.89;44.24
22096;BME280;24083;55.670;37.568;2023-05-10T17:37:33;99508.84;;;19.38;44.15
22096;BME280;24083;55.670;37.568;2023-05-10T17:40:00;99514.38;;;19.35;44.70
22096;BME280;24083;55.670;37.568;2023-05-10T17:45:02;99517.72;;;19.15;45.00
22096;BME280;24083;55.670;37.568;2023-05-10T17:47:29;99513.53;;;19.35;44.70
22096;BME280;24083;55.670;37.568;2023-05-10T17:49:55;99513.19;;;19.39;44.26
22096;BME280;24083;55.670;37.568;2023-05-10T17:52:20;99514.63;;;19.32;44.66
22096;BME280;24083;55.670;37.568;2023-05-10T17:54:48;99522.31;;;19.24;44.78
22096;BME280;24083;55.670;37.568;2023-05-10T17:57:22;99521.34;;;19.36;44.86
22096;BME280;24083;55.670;37.568;2023-05-10T17:59:50;99522.78;;;19.18;45.02
22096;BME280;24083;55.670;37.568;2023-05-10T18:02:16;99527.34;;;19.27;44.63